createdAt,value
2023-04-11T00:00:23.249Z,0.00
2023-04-11T00:01:23.238Z,0.00
2023-04-11T00:02:23.363Z,0.00
2023-04-11T00:03:23.535Z,0.00
2023-04-11T00:04:23.406Z,0.00
2023-04-11T00:05:23.194Z,0.00
2023-04-11T00:06:23.209Z,0.00
2023-04-11T00:07:23.196Z,0.00
2023-04-11T00:08:23.215Z,0.00
2023-04-11T00:09:23.190Z,0.00
2023-04-11T00:10:23.141Z,0.00
2023-04-11T00:11:23.126Z,0.00
2023-04-11T00:12:23.122Z,0.00
2023-04-11T00:13:23.109Z,0.00
2023-04-11T00:14:23.114Z,0.00
2023-04-11T00:15:23.122Z,0.00
2023-04-11T00:16:23.108Z,0.00
2023-04-11T00:17:23.066Z,0.00
2023-04-11T00:18:23.082Z,0.00
2023-04-11T00:19:23.149Z,0.00
2023-04-11T00:20:23.027Z,0.00
2023-04-11T00:21:23.005Z,0.00
2023-04-11T00:22:22.992Z,0.00
2023-04-11T00:23:23.049Z,0.00
2023-04-11T00:24:22.986Z,0.00
2023-04-11T00:25:23.007Z,0.00
2023-04-11T00:26:22.964Z,0.00
2023-04-11T00:27:22.943Z,0.00
2023-04-11T00:28:22.962Z,0.00
2023-04-11T00:29:22.932Z,0.00
2023-04-11T00:30:22.903Z,0.00
2023-04-11T00:31:23.047Z,0.00
2023-04-11T00:32:22.938Z,0.00
2023-04-11T00:33:22.898Z,0.00
2023-04-11T00:34:22.898Z,0.00
2023-04-11T00:35:22.885Z,0.00
2023-04-11T00:36:22.941Z,0.00
2023-04-11T00:37:22.892Z,0.00
2023-04-11T00:38:22.840Z,0.00
2023-04-11T00:39:22.837Z,0.00
2023-04-11T00:40:22.820Z,0.00
2023-04-11T00:41:22.792Z,0.00
2023-04-11T00:42:22.811Z,0.00
2023-04-11T00:43:22.766Z,0.00
2023-04-11T00:44:22.851Z,0.00
2023-04-11T00:45:22.752Z,0.00
2023-04-11T00:46:22.868Z,0.00
2023-04-11T00:47:22.787Z,0.00
2023-04-11T00:48:22.789Z,0.00
2023-04-11T00:49:22.739Z,0.00
2023-04-11T00:50:22.767Z,0.00
2023-04-11T00:51:22.745Z,0.00
2023-04-11T00:52:22.767Z,0.00
2023-04-11T00:53:22.751Z,0.00
2023-04-11T00:54:22.684Z,0.00
2023-04-11T00:55:22.646Z,0.00
2023-04-11T00:56:22.749Z,0.00
2023-04-11T00:57:22.681Z,0.00
2023-04-11T00:58:22.620Z,0.00
2023-04-11T00:59:22.663Z,0.00
2023-04-11T01:00:22.610Z,0.00
2023-04-11T01:01:25.097Z,0.00
2023-04-11T01:02:22.662Z,0.00
2023-04-11T01:03:23.006Z,0.00
2023-04-11T01:04:22.619Z,0.00
2023-04-11T01:05:22.620Z,0.00
2023-04-11T01:06:22.733Z,0.00
2023-04-11T01:07:22.527Z,0.00
2023-04-11T01:08:22.555Z,0.00
2023-04-11T01:09:22.602Z,0.00
2023-04-11T01:10:22.496Z,0.00
2023-04-11T01:11:22.572Z,0.00
2023-04-11T01:12:22.482Z,0.00
2023-04-11T01:13:22.488Z,0.00
2023-04-11T01:14:22.520Z,0.00
2023-04-11T01:15:22.463Z,0.00
2023-04-11T01:16:22.515Z,0.00
2023-04-11T01:17:22.435Z,0.00
2023-04-11T01:18:22.427Z,0.00
2023-04-11T01:19:22.441Z,0.00
2023-04-11T01:20:22.453Z,0.00
2023-04-11T01:21:22.504Z,0.00
2023-04-11T01:22:22.362Z,0.00
2023-04-11T01:23:22.397Z,0.00
2023-04-11T01:24:22.402Z,0.00
2023-04-11T01:25:22.405Z,0.00
2023-04-11T01:26:22.295Z,0.00
2023-04-11T01:27:22.420Z,0.00
2023-04-11T01:28:22.315Z,0.00
2023-04-11T01:29:22.383Z,0.00
2023-04-11T01:30:22.340Z,0.00
2023-04-11T01:31:22.473Z,0.00
2023-04-11T01:32:22.262Z,0.00
2023-04-11T01:33:22.286Z,0.00
2023-04-11T01:34:22.239Z,0.00
2023-04-11T01:35:22.250Z,0.00
2023-04-11T01:36:22.404Z,0.00
2023-04-11T01:37:22.177Z,0.00
2023-04-11T01:38:22.210Z,0.00
2023-04-11T01:39:22.203Z,0.00
2023-04-11T01:40:22.157Z,0.00
2023-04-11T01:41:22.138Z,0.00
2023-04-11T01:42:22.247Z,0.00
2023-04-11T01:43:22.133Z,0.00
2023-04-11T01:44:22.111Z,0.00
2023-04-11T01:45:22.142Z,0.00
2023-04-11T01:46:22.077Z,0.00
2023-04-11T01:47:22.263Z,0.00
2023-04-11T01:48:22.258Z,0.00
2023-04-11T01:49:22.182Z,0.00
2023-04-11T01:50:22.159Z,0.00
2023-04-11T01:51:22.178Z,0.00
2023-04-11T01:52:22.045Z,0.00
2023-04-11T01:53:22.009Z,0.00
2023-04-11T01:54:22.026Z,0.00
2023-04-11T01:55:21.994Z,0.00
2023-04-11T01:56:21.972Z,0.00
2023-04-11T01:57:21.976Z,0.00
2023-04-11T01:58:21.983Z,0.00
2023-04-11T01:59:21.973Z,0.00
2023-04-11T02:00:21.964Z,0.00
2023-04-11T02:01:22.221Z,0.00
2023-04-11T02:02:22.011Z,0.00
2023-04-11T02:03:22.115Z,0.00
2023-04-11T02:04:21.996Z,0.00
2023-04-11T02:05:21.889Z,0.00
2023-04-11T02:06:21.978Z,0.00
2023-04-11T02:07:22.537Z,0.00
2023-04-11T02:08:21.836Z,0.00
2023-04-11T02:09:21.856Z,0.00
2023-04-11T02:10:21.878Z,0.00
2023-04-11T02:11:21.808Z,0.00
2023-04-11T02:12:21.784Z,0.00
2023-04-11T02:13:21.797Z,0.00
2023-04-11T02:14:21.804Z,0.00
2023-04-11T02:15:21.801Z,0.00
2023-04-11T02:16:21.769Z,0.00
2023-04-11T02:17:21.830Z,0.00
2023-04-11T02:18:21.793Z,0.00
2023-04-11T02:19:21.735Z,0.00
2023-04-11T02:20:21.750Z,0.00
2023-04-11T02:21:21.706Z,0.00
2023-04-11T02:22:21.795Z,0.00
2023-04-11T02:23:23.041Z,0.00
2023-04-11T02:24:21.672Z,0.00
2023-04-11T02:25:21.751Z,0.00
2023-04-11T02:26:21.718Z,0.00
2023-04-11T02:27:21.680Z,0.00
2023-04-11T02:28:21.639Z,0.00
2023-04-11T02:29:21.681Z,0.00
2023-04-11T02:30:21.659Z,0.00
2023-04-11T02:31:21.700Z,0.00
2023-04-11T02:32:21.597Z,0.00
2023-04-11T02:33:21.580Z,0.00
2023-04-11T02:34:21.578Z,0.00
2023-04-11T02:35:21.553Z,0.00
2023-04-11T02:36:21.580Z,0.00
2023-04-11T02:37:21.511Z,0.00
2023-04-11T02:38:21.906Z,0.00
2023-04-11T02:39:21.654Z,0.00
2023-04-11T02:40:21.565Z,0.00
2023-04-11T02:41:21.619Z,0.00
2023-04-11T02:42:21.508Z,0.00
2023-04-11T02:43:21.510Z,0.00
2023-04-11T02:44:21.451Z,0.00
2023-04-11T02:45:21.472Z,0.00
2023-04-11T02:46:21.490Z,0.00
2023-04-11T02:47:21.451Z,0.00
2023-04-11T02:48:21.544Z,0.00
2023-04-11T02:49:21.515Z,0.00
2023-04-11T02:50:21.402Z,0.00
2023-04-11T02:51:21.409Z,0.00
2023-04-11T02:52:21.372Z,0.00
2023-04-11T02:53:21.380Z,0.00
2023-04-11T02:54:21.387Z,0.00
2023-04-11T02:55:21.362Z,0.00
2023-04-11T02:56:21.501Z,0.00
2023-04-11T02:57:21.494Z,0.00
2023-04-11T02:58:21.431Z,0.00
2023-04-11T02:59:21.408Z,0.00
2023-04-11T03:00:21.314Z,0.00
2023-04-11T03:01:21.454Z,0.00
2023-04-11T03:02:21.488Z,0.00
2023-04-11T03:03:21.469Z,0.00
2023-04-11T03:04:21.391Z,0.00
2023-04-11T03:05:21.263Z,0.00
2023-04-11T03:06:21.278Z,0.00
2023-04-11T03:07:21.296Z,0.00
2023-04-11T03:08:21.209Z,0.00
2023-04-11T03:09:21.175Z,0.00
2023-04-11T03:10:21.163Z,0.00
2023-04-11T03:11:21.215Z,0.00
2023-04-11T03:12:21.194Z,0.00
2023-04-11T03:13:21.127Z,0.00
2023-04-11T03:14:21.146Z,0.00
2023-04-11T03:15:21.147Z,0.00
2023-04-11T03:16:21.122Z,0.00
2023-04-11T03:17:21.131Z,0.00
2023-04-11T03:18:21.101Z,0.00
2023-04-11T03:19:21.117Z,0.00
2023-04-11T03:20:21.062Z,0.00
2023-04-11T03:21:21.053Z,0.00
2023-04-11T03:22:21.056Z,0.00
2023-04-11T03:23:21.031Z,0.00
2023-04-11T03:24:21.033Z,0.00
2023-04-11T03:25:21.027Z,0.00
2023-04-11T03:26:21.001Z,0.00
2023-04-11T03:27:20.992Z,0.00
2023-04-11T03:28:21.033Z,0.00
2023-04-11T03:29:21.024Z,0.00
2023-04-11T03:30:20.983Z,0.00
2023-04-11T03:31:20.986Z,0.00
2023-04-11T03:32:21.020Z,0.00
2023-04-11T03:33:20.900Z,0.00
2023-04-11T03:34:20.900Z,0.00
2023-04-11T03:35:20.917Z,0.00
2023-04-11T03:36:20.903Z,0.00
2023-04-11T03:37:20.918Z,0.00
2023-04-11T03:38:20.945Z,0.00
2023-04-11T03:39:20.883Z,0.00
2023-04-11T03:40:20.882Z,0.00
2023-04-11T03:41:20.828Z,0.00
2023-04-11T03:42:20.823Z,0.00
2023-04-11T03:43:20.865Z,0.00
2023-04-11T03:44:20.979Z,0.00
2023-04-11T03:45:20.871Z,0.00
2023-04-11T03:46:20.890Z,0.00
2023-04-11T03:47:20.799Z,0.00
2023-04-11T03:48:20.805Z,0.00
2023-04-11T03:49:20.744Z,0.00
2023-04-11T03:50:20.746Z,0.00
2023-04-11T03:51:20.727Z,0.00
2023-04-11T03:52:20.711Z,0.00
2023-04-11T03:53:20.704Z,0.00
2023-04-11T03:54:20.676Z,0.00
2023-04-11T03:55:20.672Z,0.00
2023-04-11T03:56:20.728Z,0.00
2023-04-11T03:57:20.701Z,0.00
2023-04-11T03:58:20.856Z,0.00
2023-04-11T03:59:20.662Z,0.00
2023-04-11T04:00:20.755Z,0.00
2023-04-11T04:01:20.605Z,0.00
2023-04-11T04:02:20.725Z,0.00
2023-04-11T04:03:20.951Z,0.00
2023-04-11T04:04:20.662Z,0.00
2023-04-11T04:05:20.586Z,0.00
2023-04-11T04:06:20.602Z,0.00
2023-04-11T04:07:20.526Z,0.00
2023-04-11T04:08:20.520Z,0.00
2023-04-11T04:09:20.503Z,0.00
2023-04-11T04:10:20.502Z,0.00
2023-04-11T04:11:20.549Z,0.00
2023-04-11T04:12:20.475Z,0.00
2023-04-11T04:13:20.511Z,0.00
2023-04-11T04:14:20.471Z,0.00
2023-04-11T04:15:20.520Z,0.00
2023-04-11T04:16:20.511Z,0.00
2023-04-11T04:17:20.463Z,0.00
2023-04-11T04:18:20.397Z,0.00
2023-04-11T04:19:20.486Z,0.00
2023-04-11T04:20:20.445Z,0.00
2023-04-11T04:21:20.391Z,0.00
2023-04-11T04:22:20.423Z,0.00
2023-04-11T04:23:20.363Z,0.00
2023-04-11T04:24:20.360Z,0.00
2023-04-11T04:25:20.331Z,0.00
2023-04-11T04:26:20.325Z,0.00
2023-04-11T04:27:20.334Z,0.00
2023-04-11T04:28:20.320Z,0.00
2023-04-11T04:29:20.321Z,0.00
2023-04-11T04:30:20.278Z,0.00
2023-04-11T04:31:20.291Z,0.00
2023-04-11T04:32:20.307Z,0.00
2023-04-11T04:33:20.240Z,0.00
2023-04-11T04:34:20.279Z,0.00
2023-04-11T04:35:20.284Z,0.00
2023-04-11T04:36:20.217Z,0.00
2023-04-11T04:37:20.202Z,0.00
2023-04-11T04:38:20.214Z,0.00
2023-04-11T04:39:20.192Z,0.00
2023-04-11T04:40:20.204Z,0.00
2023-04-11T04:41:20.251Z,0.00
2023-04-11T04:42:20.354Z,0.00
2023-04-11T04:43:20.207Z,0.00
2023-04-11T04:44:20.174Z,0.00
2023-04-11T04:45:20.176Z,0.00
2023-04-11T04:46:20.188Z,0.00
2023-04-11T04:47:20.178Z,0.00
2023-04-11T04:48:20.195Z,0.00
2023-04-11T04:49:20.147Z,0.00
2023-04-11T04:50:20.132Z,0.00
2023-04-11T04:51:20.104Z,0.00
2023-04-11T04:52:20.052Z,0.00
2023-04-11T04:53:20.050Z,0.00
2023-04-11T04:54:20.044Z,0.00
2023-04-11T04:55:20.024Z,0.00
2023-04-11T04:56:20.030Z,0.00
2023-04-11T04:57:20.032Z,0.00
2023-04-11T04:58:19.987Z,0.00
2023-04-11T04:59:19.961Z,0.00
2023-04-11T05:00:21.833Z,0.00
2023-04-11T05:01:20.085Z,0.00
2023-04-11T05:02:19.994Z,0.00
2023-04-11T05:03:20.143Z,0.00
2023-04-11T05:04:20.053Z,0.00
2023-04-11T05:05:19.904Z,0.00
2023-04-11T05:06:20.013Z,0.00
2023-04-11T05:07:19.901Z,0.00
2023-04-11T05:08:19.866Z,0.00
2023-04-11T05:09:19.965Z,0.00
2023-04-11T05:10:19.835Z,0.00
2023-04-11T05:11:19.823Z,0.00
2023-04-11T05:12:19.837Z,0.00
2023-04-11T05:13:19.810Z,0.00
2023-04-11T05:14:19.791Z,0.00
2023-04-11T05:15:19.791Z,0.00
2023-04-11T05:16:19.863Z,0.00
2023-04-11T05:17:19.836Z,0.00
2023-04-11T05:18:19.758Z,0.00
2023-04-11T05:19:19.737Z,0.00
2023-04-11T05:20:19.736Z,0.00
2023-04-11T05:21:19.723Z,0.00
2023-04-11T05:22:19.720Z,0.00
2023-04-11T05:23:19.929Z,0.00
2023-04-11T05:24:19.680Z,0.00
2023-04-11T05:25:19.690Z,0.00
2023-04-11T05:26:19.676Z,0.00
2023-04-11T05:27:19.667Z,0.00
2023-04-11T05:28:19.636Z,0.00
2023-04-11T05:29:19.715Z,0.00
2023-04-11T05:30:19.640Z,0.00
2023-04-11T05:31:19.635Z,0.00
2023-04-11T05:32:19.647Z,0.00
2023-04-11T05:33:19.599Z,0.00
2023-04-11T05:34:19.589Z,0.00
2023-04-11T05:35:19.563Z,0.00
2023-04-11T05:36:19.550Z,0.00
2023-04-11T05:37:19.618Z,0.00
2023-04-11T05:38:19.522Z,0.00
2023-04-11T05:39:19.528Z,0.00
2023-04-11T05:40:19.517Z,0.00
2023-04-11T05:41:19.508Z,0.00
2023-04-11T05:42:27.139Z,0.00
2023-04-11T05:43:19.471Z,0.00
2023-04-11T05:44:27.090Z,0.00
2023-04-11T05:45:19.475Z,0.00
2023-04-11T05:46:19.505Z,0.00
2023-04-11T05:47:19.444Z,0.00
2023-04-11T05:48:19.421Z,0.00
2023-04-11T05:49:19.434Z,0.00
2023-04-11T05:50:19.404Z,0.00
2023-04-11T05:51:19.425Z,0.00
2023-04-11T05:52:19.424Z,0.00
2023-04-11T05:53:19.353Z,0.00
2023-04-11T05:54:19.376Z,0.00
2023-04-11T05:55:19.368Z,0.00
2023-04-11T05:56:19.333Z,0.00
2023-04-11T05:57:19.322Z,0.00
2023-04-11T05:58:19.308Z,0.00
2023-04-11T05:59:25.073Z,0.00
2023-04-11T06:00:20.305Z,0.00
2023-04-11T06:01:19.324Z,5.62
2023-04-11T06:02:19.516Z,5.62
2023-04-11T06:03:19.358Z,0.00
2023-04-11T06:04:19.402Z,0.00
2023-04-11T06:05:19.274Z,0.00
2023-04-11T06:06:19.246Z,0.00
2023-04-11T06:07:19.225Z,0.00
2023-04-11T06:08:19.200Z,5.62
2023-04-11T06:09:19.229Z,11.25
2023-04-11T06:10:19.185Z,11.25
2023-04-11T06:11:19.178Z,11.25
2023-04-11T06:12:19.184Z,5.62
2023-04-11T06:13:19.132Z,5.62
2023-04-11T06:14:19.123Z,5.62
2023-04-11T06:15:19.108Z,0.00
2023-04-11T06:16:19.130Z,0.00
2023-04-11T06:17:19.087Z,0.00
2023-04-11T06:18:19.106Z,5.62
2023-04-11T06:19:19.068Z,5.62
2023-04-11T06:20:19.059Z,5.62
2023-04-11T06:21:19.046Z,5.62
2023-04-11T06:22:19.035Z,5.62
2023-04-11T06:23:19.041Z,0.00
2023-04-11T06:24:19.022Z,5.62
2023-04-11T06:25:19.972Z,5.62
2023-04-11T06:26:19.021Z,5.62
2023-04-11T06:27:19.045Z,5.62
2023-04-11T06:28:18.975Z,5.62
2023-04-11T06:29:18.969Z,5.62
2023-04-11T06:30:19.038Z,5.62
2023-04-11T06:31:19.002Z,5.62
2023-04-11T06:32:18.940Z,11.25
2023-04-11T06:33:18.968Z,11.25
2023-04-11T06:34:18.926Z,11.25
2023-04-11T06:35:18.901Z,5.62
2023-04-11T06:36:18.972Z,5.62
2023-04-11T06:37:18.874Z,5.62
2023-04-11T06:38:18.860Z,11.25
2023-04-11T06:39:18.847Z,11.25
2023-04-11T06:40:18.874Z,11.25
2023-04-11T06:41:18.835Z,5.62
2023-04-11T06:42:18.867Z,5.62
2023-04-11T06:43:18.826Z,5.62
2023-04-11T06:44:18.837Z,5.62
2023-04-11T06:45:19.483Z,5.62
2023-04-11T06:46:18.905Z,5.62
2023-04-11T06:47:18.825Z,5.62
2023-04-11T06:48:18.963Z,5.62
2023-04-11T06:49:18.794Z,5.62
2023-04-11T06:50:18.764Z,5.62
2023-04-11T06:51:18.767Z,5.62
2023-04-11T06:52:18.747Z,5.62
2023-04-11T06:53:18.731Z,5.62
2023-04-11T06:54:18.695Z,5.62
2023-04-11T06:55:18.680Z,5.62
2023-04-11T06:56:18.754Z,5.62
2023-04-11T06:57:18.661Z,5.62
2023-04-11T06:58:18.664Z,5.62
2023-04-11T06:59:18.766Z,0.00
2023-04-11T07:00:18.621Z,0.00
2023-04-11T07:01:18.645Z,0.00
2023-04-11T07:02:18.839Z,0.00
2023-04-11T07:03:18.725Z,0.00
2023-04-11T07:04:18.770Z,5.62
2023-04-11T07:05:18.617Z,11.25
2023-04-11T07:06:18.551Z,11.25
2023-04-11T07:07:18.571Z,16.88
2023-04-11T07:08:18.568Z,11.25
2023-04-11T07:09:18.520Z,11.25
2023-04-11T07:10:18.534Z,11.25
2023-04-11T07:11:20.136Z,16.88
2023-04-11T07:12:18.499Z,16.88
2023-04-11T07:13:18.485Z,33.75
2023-04-11T07:14:18.639Z,11.25
2023-04-11T07:15:18.552Z,16.88
2023-04-11T07:16:18.551Z,16.88
2023-04-11T07:17:18.454Z,39.38
2023-04-11T07:18:18.437Z,11.25
2023-04-11T07:19:18.443Z,11.25
2023-04-11T07:20:18.585Z,11.25
2023-04-11T07:21:18.439Z,11.25
2023-04-11T07:22:18.387Z,11.25
2023-04-11T07:23:20.171Z,11.25
2023-04-11T07:24:18.721Z,11.25
2023-04-11T07:25:18.354Z,11.25
2023-04-11T07:26:18.344Z,5.62
2023-04-11T07:27:18.339Z,5.62
2023-04-11T07:28:18.572Z,11.25
2023-04-11T07:29:18.305Z,11.25
2023-04-11T07:30:18.290Z,16.88
2023-04-11T07:31:18.430Z,16.88
2023-04-11T07:32:18.307Z,22.50
2023-04-11T07:33:18.461Z,11.25
2023-04-11T07:34:18.254Z,16.88
2023-04-11T07:50:58.235Z,16.88
2023-04-11T07:51:58.159Z,39.38
2023-04-11T07:52:58.167Z,11.25
2023-04-11T07:53:58.213Z,16.88
2023-04-11T07:54:58.204Z,16.88
2023-04-11T07:55:58.144Z,16.88
2023-04-11T07:56:58.136Z,11.25
2023-04-11T07:57:58.116Z,11.25
2023-04-11T07:58:58.090Z,11.25
2023-04-11T07:59:58.071Z,5.62
2023-04-11T08:00:58.107Z,11.25
2023-04-11T08:01:58.150Z,11.25
2023-04-11T08:02:58.297Z,11.25
2023-04-11T08:03:58.587Z,11.25
2023-04-11T08:04:58.168Z,11.25
2023-04-11T08:05:58.020Z,16.88
2023-04-11T08:06:58.032Z,16.88
2023-04-11T08:07:58.001Z,16.88
2023-04-11T08:08:58.001Z,16.88
2023-04-11T08:09:57.966Z,16.88
2023-04-11T08:10:57.962Z,11.25
2023-04-11T08:11:57.945Z,11.25
2023-04-11T08:12:57.968Z,16.88
2023-04-11T08:13:58.223Z,78.75
2023-04-11T08:14:57.916Z,78.75
2023-04-11T08:15:57.906Z,22.50
2023-04-11T08:16:57.929Z,22.50
2023-04-11T08:17:57.925Z,22.50
2023-04-11T08:18:57.927Z,22.50
2023-04-11T08:19:57.897Z,78.75
2023-04-11T08:20:57.905Z,61.88
2023-04-11T08:21:57.839Z,22.50
2023-04-11T08:22:57.877Z,22.50
2023-04-11T08:23:58.041Z,22.50
2023-04-11T08:24:57.836Z,16.88
2023-04-11T08:25:57.814Z,16.88
2023-04-11T08:26:57.781Z,22.50
2023-04-11T08:27:57.772Z,16.88
2023-04-11T08:28:57.772Z,22.50
2023-04-11T08:29:57.802Z,22.50
2023-04-11T08:30:57.842Z,16.88
2023-04-11T08:31:57.737Z,16.88
2023-04-11T08:32:57.735Z,16.88
2023-04-11T08:34:00.421Z,28.12
2023-04-11T08:34:57.703Z,78.75
2023-04-11T08:35:57.738Z,61.88
2023-04-11T08:36:57.713Z,33.75
2023-04-11T08:37:57.677Z,78.75
2023-04-11T08:38:57.674Z,22.50
2023-04-11T08:39:57.645Z,22.50
2023-04-11T08:40:57.659Z,22.50
2023-04-11T08:41:57.650Z,16.88
2023-04-11T08:42:57.632Z,22.50
2023-04-11T08:43:57.998Z,22.50
2023-04-11T08:44:57.603Z,22.50
2023-04-11T08:45:57.625Z,16.88
2023-04-11T08:46:57.573Z,22.50
2023-04-11T08:47:57.607Z,22.50
2023-04-11T08:48:57.581Z,22.50
2023-04-11T08:49:57.543Z,22.50
2023-04-11T08:50:57.558Z,78.75
2023-04-11T08:51:57.540Z,22.50
2023-04-11T08:52:57.501Z,22.50
2023-04-11T08:53:57.926Z,22.50
2023-04-11T08:54:58.486Z,22.50
2023-04-11T08:55:57.513Z,22.50
2023-04-11T08:56:57.454Z,28.12
2023-04-11T08:57:57.447Z,22.50
2023-04-11T08:58:57.447Z,16.88
2023-04-11T08:59:57.441Z,16.88
2023-04-11T09:00:57.446Z,22.50
2023-04-11T09:01:57.518Z,78.75
2023-04-11T09:02:57.500Z,78.75
2023-04-11T09:03:57.727Z,22.50
2023-04-11T09:04:57.635Z,16.88
2023-04-11T09:05:57.364Z,16.88
2023-04-11T09:06:58.954Z,67.50
2023-04-11T09:07:57.359Z,28.12
2023-04-11T09:08:57.328Z,22.50
2023-04-11T09:09:57.343Z,11.25
2023-04-11T09:10:57.386Z,16.88
2023-04-11T09:11:57.295Z,78.75
2023-04-11T09:12:57.317Z,16.88
2023-04-11T09:13:57.401Z,78.75
2023-04-11T09:14:57.271Z,78.75
2023-04-11T09:15:57.297Z,78.75
2023-04-11T09:16:57.243Z,61.88
2023-04-11T09:18:00.355Z,28.12
2023-04-11T09:18:57.504Z,78.75
2023-04-11T09:19:57.221Z,78.75
2023-04-11T09:20:57.193Z,84.38
2023-04-11T09:21:57.196Z,84.38
2023-04-11T09:22:57.174Z,78.75
2023-04-11T09:23:57.344Z,78.75
2023-04-11T09:24:57.217Z,84.38
2023-04-11T09:25:57.188Z,84.38
2023-04-11T09:26:57.164Z,84.38
2023-04-11T09:27:57.124Z,73.12
2023-04-11T09:28:57.363Z,78.75
2023-04-11T09:29:57.130Z,22.50
2023-04-11T09:30:57.170Z,22.50
2023-04-11T09:31:57.160Z,16.88
2023-04-11T09:32:57.165Z,78.75
2023-04-11T09:33:57.637Z,73.12
2023-04-11T09:34:57.070Z,50.62
2023-04-11T09:35:57.096Z,78.75
2023-04-11T09:36:57.070Z,78.75
2023-04-11T09:37:57.038Z,78.75
2023-04-11T09:38:57.005Z,90.00
2023-04-11T09:39:56.993Z,22.50
2023-04-11T09:40:56.998Z,28.12
2023-04-11T09:41:57.003Z,22.50
2023-04-11T09:42:57.061Z,67.50
2023-04-11T09:43:57.195Z,16.88
2023-04-11T09:44:56.945Z,73.12
2023-04-11T09:45:56.935Z,28.12
2023-04-11T09:46:57.056Z,95.62
2023-04-11T09:47:56.995Z,84.38
2023-04-11T09:48:57.064Z,22.50
2023-04-11T09:49:56.895Z,101.25
2023-04-11T09:50:58.757Z,106.88
2023-04-11T09:51:56.868Z,56.25
2023-04-11T09:52:58.862Z,106.88
2023-04-11T09:53:57.025Z,28.12
2023-04-11T09:54:56.867Z,28.12
2023-04-11T09:55:56.820Z,22.50
2023-04-11T09:56:56.802Z,28.12
2023-04-11T09:57:56.835Z,22.50
2023-04-11T09:58:57.020Z,22.50
2023-04-11T09:59:56.790Z,95.62
2023-04-11T10:00:56.902Z,73.12
2023-04-11T10:01:56.861Z,22.50
2023-04-11T10:02:57.005Z,95.62
2023-04-11T10:03:57.673Z,101.25
2023-04-11T10:04:56.756Z,95.62
2023-04-11T10:05:56.704Z,95.62
2023-04-11T10:06:56.744Z,78.75
2023-04-11T10:07:56.688Z,45.00
2023-04-11T10:08:56.815Z,90.00
2023-04-11T10:09:56.692Z,22.50
2023-04-11T10:10:56.649Z,22.50
2023-04-11T10:11:56.637Z,78.75
2023-04-11T10:12:56.725Z,78.75
2023-04-11T10:13:56.759Z,78.75
2023-04-11T10:14:56.618Z,78.75
2023-04-11T10:15:56.722Z,78.75
2023-04-11T10:16:56.577Z,78.75
2023-04-11T10:17:56.596Z,78.75
2023-04-11T10:18:56.590Z,61.88
2023-04-11T10:19:56.964Z,61.88
2023-04-11T10:20:56.542Z,84.38
2023-04-11T10:21:56.575Z,22.50
2023-04-11T10:22:56.509Z,22.50
2023-04-11T10:23:56.787Z,22.50
2023-04-11T10:24:56.549Z,28.12
2023-04-11T10:25:56.489Z,16.88
2023-04-11T10:26:56.486Z,16.88
2023-04-11T10:27:57.890Z,16.88
2023-04-11T10:28:56.454Z,84.38
2023-04-11T10:29:56.480Z,16.88
2023-04-11T10:30:56.443Z,78.75
2023-04-11T10:31:56.582Z,78.75
2023-04-11T10:32:56.453Z,78.75
2023-04-11T10:33:56.508Z,78.75
2023-04-11T10:34:56.389Z,73.12
2023-04-11T10:35:56.428Z,73.12
2023-04-11T10:36:56.386Z,78.75
2023-04-11T10:37:56.345Z,78.75
2023-04-11T10:38:56.356Z,78.75
2023-04-11T10:39:56.364Z,78.75
2023-04-11T10:40:56.325Z,78.75
2023-04-11T10:41:56.362Z,73.12
2023-04-11T10:42:56.291Z,78.75
2023-04-11T10:43:56.467Z,78.75
2023-04-11T10:44:56.282Z,78.75
2023-04-11T10:45:56.345Z,78.75
2023-04-11T10:46:56.348Z,78.75
2023-04-11T10:47:56.326Z,84.38
2023-04-11T10:48:56.233Z,78.75
2023-04-11T10:49:56.221Z,22.50
2023-04-11T10:50:56.208Z,61.88
2023-04-11T10:51:56.199Z,22.50
2023-04-11T10:52:56.239Z,78.75
2023-04-11T10:53:56.177Z,78.75
2023-04-11T10:54:56.180Z,78.75
2023-04-11T10:55:56.182Z,78.75
2023-04-11T10:56:56.147Z,45.00
2023-04-11T10:57:56.163Z,22.50
2023-04-11T10:58:56.176Z,28.12
2023-04-11T10:59:56.150Z,78.75
2023-04-11T11:00:56.133Z,73.12
2023-04-11T11:01:56.214Z,73.12
2023-04-11T11:02:56.200Z,78.75
2023-04-11T11:03:56.368Z,67.50
2023-04-11T11:04:56.097Z,78.75
2023-04-11T11:05:56.044Z,78.75
2023-04-11T11:06:57.408Z,78.75
2023-04-11T11:07:56.024Z,78.75
2023-04-11T11:08:56.031Z,78.75
2023-04-11T11:09:56.011Z,73.12
2023-04-11T11:10:56.802Z,73.12
2023-04-11T11:11:55.989Z,73.12
2023-04-11T11:12:55.972Z,16.88
2023-04-11T11:13:56.617Z,73.12
2023-04-11T11:14:55.947Z,73.12
2023-04-11T11:15:55.947Z,73.12
2023-04-11T11:16:56.026Z,73.12
2023-04-11T11:17:55.941Z,73.12
2023-04-11T11:18:55.928Z,73.12
2023-04-11T11:19:55.920Z,73.12
2023-04-11T11:20:55.882Z,78.75
2023-04-11T11:21:55.895Z,73.12
2023-04-11T11:22:55.968Z,73.12
2023-04-11T11:23:56.128Z,73.12
2023-04-11T11:24:55.856Z,73.12
2023-04-11T11:25:55.825Z,73.12
2023-04-11T11:26:55.816Z,73.12
2023-04-11T11:27:55.817Z,73.12
2023-04-11T11:28:55.921Z,73.12
2023-04-11T11:29:55.805Z,67.50
2023-04-11T11:30:55.849Z,67.50
2023-04-11T11:31:55.795Z,67.50
2023-04-11T11:32:55.794Z,73.12
2023-04-11T11:33:58.281Z,73.12
2023-04-11T11:34:56.753Z,73.12
2023-04-11T11:35:55.726Z,73.12
2023-04-11T11:36:55.726Z,73.12
2023-04-11T11:37:55.702Z,73.12
2023-04-11T11:38:55.783Z,73.12
2023-04-11T11:39:55.684Z,73.12
2023-04-11T11:40:55.696Z,39.38
2023-04-11T11:41:55.669Z,78.75
2023-04-11T11:42:55.643Z,78.75
2023-04-11T11:43:55.861Z,67.50
2023-04-11T11:44:55.631Z,22.50
2023-04-11T11:45:55.664Z,78.75
2023-04-11T11:46:55.646Z,73.12
2023-04-11T11:47:55.635Z,73.12
2023-04-11T11:49:55.699Z,22.50
2023-04-11T11:50:55.617Z,22.50
2023-04-11T11:51:55.560Z,67.50
2023-04-11T11:52:55.579Z,78.75
2023-04-11T11:53:56.069Z,73.12
2023-04-11T11:54:55.530Z,67.50
2023-04-11T11:55:55.676Z,50.62
2023-04-11T11:56:55.519Z,67.50
2023-04-11T11:57:55.501Z,61.88
2023-04-11T11:58:55.684Z,67.50
2023-04-11T11:59:55.462Z,61.88
2023-04-11T12:00:55.473Z,56.25
2023-04-11T12:01:55.491Z,16.88
2023-04-11T12:02:55.641Z,16.88
2023-04-11T12:03:55.883Z,61.88
2023-04-11T12:04:55.934Z,67.50
2023-04-11T12:05:55.434Z,67.50
2023-04-11T12:06:55.411Z,67.50
2023-04-11T12:07:55.379Z,67.50
2023-04-11T12:08:55.372Z,67.50
2023-04-11T12:09:55.372Z,67.50
2023-04-11T12:10:55.376Z,61.88
2023-04-11T12:11:55.355Z,61.88
2023-04-11T12:12:55.345Z,61.88
2023-04-11T12:13:55.674Z,61.88
2023-04-11T12:14:55.313Z,61.88
2023-04-11T12:15:55.374Z,61.88
2023-04-11T12:16:55.334Z,61.88
2023-04-11T12:17:55.327Z,61.88
2023-04-11T12:18:55.257Z,61.88
2023-04-11T12:19:55.251Z,61.88
2023-04-11T12:20:55.241Z,61.88
2023-04-11T12:21:55.272Z,61.88
2023-04-11T12:22:55.561Z,61.88
2023-04-11T12:23:55.436Z,61.88
2023-04-11T12:24:55.230Z,56.25
2023-04-11T12:25:55.204Z,56.25
2023-04-11T12:27:06.389Z,56.25
2023-04-11T12:27:56.188Z,56.25
2023-04-11T12:28:55.349Z,56.25
2023-04-11T12:29:55.146Z,56.25
2023-04-11T12:30:55.179Z,56.25
2023-04-11T12:31:55.142Z,56.25
2023-04-11T12:32:55.136Z,56.25
2023-04-11T12:33:55.511Z,50.62
2023-04-11T12:34:55.119Z,56.25
2023-04-11T12:35:55.117Z,56.25
2023-04-11T12:36:55.063Z,56.25
2023-04-11T12:37:55.052Z,56.25
2023-04-11T12:38:55.286Z,56.25
2023-04-11T12:39:55.041Z,56.25
2023-04-11T12:41:09.103Z,56.25
2023-04-11T12:41:56.028Z,56.25
2023-04-11T12:42:57.359Z,56.25
2023-04-11T12:43:55.213Z,56.25
2023-04-11T12:44:55.018Z,56.25
2023-04-11T12:45:54.963Z,50.62
2023-04-11T12:46:55.015Z,50.62
2023-04-11T12:47:55.014Z,50.62
2023-04-11T12:48:55.199Z,50.62
2023-04-11T12:49:54.944Z,50.62
2023-04-11T12:50:54.945Z,56.25
2023-04-11T12:51:54.899Z,56.25
2023-04-11T12:52:56.272Z,56.25
2023-04-11T12:53:54.880Z,56.25
2023-04-11T12:54:54.918Z,56.25
2023-04-11T12:55:54.881Z,16.88
2023-04-11T12:56:54.852Z,56.25
2023-04-11T12:57:54.830Z,56.25
2023-04-11T12:58:54.972Z,56.25
2023-04-11T12:59:54.807Z,56.25
2023-04-11T13:00:54.814Z,56.25
2023-04-11T13:01:54.906Z,56.25
2023-04-11T13:02:55.093Z,50.62
2023-04-11T13:03:54.921Z,50.62
2023-04-11T13:04:54.946Z,50.62
2023-04-11T13:05:54.762Z,45.00
2023-04-11T13:06:54.766Z,45.00
2023-04-11T13:07:54.778Z,45.00
2023-04-11T13:08:54.940Z,45.00
2023-04-11T13:09:54.705Z,45.00
2023-04-11T13:10:55.910Z,45.00
2023-04-11T13:11:54.703Z,28.12
2023-04-11T13:12:55.204Z,45.00
2023-04-11T13:13:54.668Z,50.62
2023-04-11T13:14:54.673Z,45.00
2023-04-11T13:15:54.677Z,50.62
2023-04-11T13:16:54.655Z,50.62
2023-04-11T13:17:54.623Z,33.75
2023-04-11T13:18:54.885Z,45.00
2023-04-11T13:19:54.592Z,45.00
2023-04-11T13:20:54.588Z,45.00
2023-04-11T13:21:54.593Z,45.00
2023-04-11T13:22:54.614Z,45.00